sensor_id;sensor_type;location;lat;lon;timestamp;P1;durP1;ratioP1;P2;durP2;ratioP2
24743;SDS011;12844;52.110;5.548;2023-05-31T00:01:44;2.33;;;1.60;;
24743;SDS011;12844;52.110;5.548;2023-05-31T00:04:10;2.75;;;1.65;;
24743;SDS011;12844;52.110;5.548;2023-05-31T00:06:35;1.92;;;1.52;;
24743;SDS011;12844;52.110;5.548;2023-05-31T00:09:01;2.58;;;1.40;;
24743;SDS011;12844;52.110;5.548;2023-05-31T00:11:27;1.70;;;1.40;;
24743;SDS011;12844;52.110;5.548;2023-05-31T00:13:53;2.15;;;1.60;;
24743;SDS011;12844;52.110;5.548;2023-05-31T00:16:19;2.17;;;1.50;;
24743;SDS011;12844;52.110;5.548;2023-05-31T00:18:44;2.10;;;1.45;;
24743;SDS011;12844;52.110;5.548;2023-05-31T00:21:10;2.75;;;1.20;;
24743;SDS011;12844;52.110;5.548;2023-05-31T00:23:35;2.35;;;1.35;;
24743;SDS011;12844;52.110;5.548;2023-05-31T00:26:01;2.17;;;1.42;;
24743;SDS011;12844;52.110;5.548;2023-05-31T00:28:26;1.95;;;1.40;;
24743;SDS011;12844;52.110;5.548;2023-05-31T00:30:52;1.92;;;1.52;;
24743;SDS011;12844;52.110;5.548;2023-05-31T00:33:17;2.03;;;1.48;;
24743;SDS011;12844;52.110;5.548;2023-05-31T00:35:43;1.33;;;1.20;;
24743;SDS011;12844;52.110;5.548;2023-05-31T00:38:08;2.08;;;1.52;;
24743;SDS011;12844;52.110;5.548;2023-05-31T00:40:34;2.70;;;1.65;;
24743;SDS011;12844;52.110;5.548;2023-05-31T00:43:00;2.13;;;1.48;;
24743;SDS011;12844;52.110;5.548;2023-05-31T00:45:25;1.70;;;1.20;;
24743;SDS011;12844;52.110;5.548;2023-05-31T00:47:53;1.65;;;1.20;;
24743;SDS011;12844;52.110;5.548;2023-05-31T00:50:19;2.28;;;1.45;;
24743;SDS011;12844;52.110;5.548;2023-05-31T00:52:46;2.38;;;1.42;;
24743;SDS011;12844;52.110;5.548;2023-05-31T00:55:12;1.85;;;1.63;;
24743;SDS011;12844;52.110;5.548;2023-05-31T00:57:38;2.42;;;1.40;;
24743;SDS011;12844;52.110;5.548;2023-05-31T01:00:05;2.47;;;1.50;;
24743;SDS011;12844;52.110;5.548;2023-05-31T01:02:33;1.63;;;1.30;;
24743;SDS011;12844;52.110;5.548;2023-05-31T01:04:59;2.05;;;1.70;;
24743;SDS011;12844;52.110;5.548;2023-05-31T01:07:26;2.42;;;1.35;;
24743;SDS011;12844;52.110;5.548;2023-05-31T01:09:52;2.58;;;1.60;;
24743;SDS011;12844;52.110;5.548;2023-05-31T01:12:20;2.88;;;1.70;;
24743;SDS011;12844;52.110;5.548;2023-05-31T01:20:16;2.30;;;1.50;;
24743;SDS011;12844;52.110;5.548;2023-05-31T01:22:55;2.55;;;1.48;;
24743;SDS011;12844;52.110;5.548;2023-05-31T01:28:37;1.77;;;1.50;;
24743;SDS011;12844;52.110;5.548;2023-05-31T01:31:06;1.85;;;1.40;;
24743;SDS011;12844;52.110;5.548;2023-05-31T01:33:34;2.13;;;1.35;;
24743;SDS011;12844;52.110;5.548;2023-05-31T01:36:01;2.70;;;1.30;;
24743;SDS011;12844;52.110;5.548;2023-05-31T01:38:28;2.28;;;1.42;;
24743;SDS011;12844;52.110;5.548;2023-05-31T01:40:54;2.03;;;1.35;;
24743;SDS011;12844;52.110;5.548;2023-05-31T01:43:22;2.60;;;1.23;;
24743;SDS011;12844;52.110;5.548;2023-05-31T01:45:50;2.70;;;1.52;;
24743;SDS011;12844;52.110;5.548;2023-05-31T01:48:17;1.65;;;1.40;;
24743;SDS011;12844;52.110;5.548;2023-05-31T01:50:43;3.58;;;1.33;;
24743;SDS011;12844;52.110;5.548;2023-05-31T01:53:10;1.80;;;1.30;;
24743;SDS011;12844;52.110;5.548;2023-05-31T01:55:35;2.08;;;1.33;;
24743;SDS011;12844;52.110;5.548;2023-05-31T01:58:01;1.83;;;1.20;;
24743;SDS011;12844;52.110;5.548;2023-05-31T02:00:27;1.63;;;1.20;;
24743;SDS011;12844;52.110;5.548;2023-05-31T02:02:55;3.22;;;1.35;;
24743;SDS011;12844;52.110;5.548;2023-05-31T02:05:21;2.53;;;1.50;;
24743;SDS011;12844;52.110;5.548;2023-05-31T02:07:47;3.08;;;1.58;;
24743;SDS011;12844;52.110;5.548;2023-05-31T02:10:13;2.05;;;1.20;;
24743;SDS011;12844;52.110;5.548;2023-05-31T02:12:39;2.00;;;1.38;;
24743;SDS011;12844;52.110;5.548;2023-05-31T02:15:05;2.15;;;1.45;;
24743;SDS011;12844;52.110;5.548;2023-05-31T02:17:36;2.20;;;1.40;;
24743;SDS011;12844;52.110;5.548;2023-05-31T02:20:05;2.10;;;1.33;;
24743;SDS011;12844;52.110;5.548;2023-05-31T02:22:34;1.70;;;1.10;;
24743;SDS011;12844;52.110;5.548;2023-05-31T02:24:59;1.95;;;1.40;;
24743;SDS011;12844;52.110;5.548;2023-05-31T02:27:25;1.83;;;1.60;;
24743;SDS011;12844;52.110;5.548;2023-05-31T02:29:50;1.50;;;1.33;;
24743;SDS011;12844;52.110;5.548;2023-05-31T02:32:16;2.30;;;1.50;;
24743;SDS011;12844;52.110;5.548;2023-05-31T02:34:41;1.73;;;1.30;;
24743;SDS011;12844;52.110;5.548;2023-05-31T02:37:07;1.95;;;1.40;;
24743;SDS011;12844;52.110;5.548;2023-05-31T02:39:33;2.38;;;1.60;;
24743;SDS011;12844;52.110;5.548;2023-05-31T02:41:59;2.83;;;1.50;;
24743;SDS011;12844;52.110;5.548;2023-05-31T02:44:24;2.58;;;1.60;;
24743;SDS011;12844;52.110;5.548;2023-05-31T02:46:50;2.22;;;1.23;;
24743;SDS011;12844;52.110;5.548;2023-05-31T02:49:15;2.45;;;1.50;;
24743;SDS011;12844;52.110;5.548;2023-05-31T02:51:41;2.03;;;1.40;;
24743;SDS011;12844;52.110;5.548;2023-05-31T02:54:06;3.05;;;1.50;;
24743;SDS011;12844;52.110;5.548;2023-05-31T02:56:32;2.22;;;1.63;;
24743;SDS011;12844;52.110;5.548;2023-05-31T02:58:58;1.98;;;1.40;;
24743;SDS011;12844;52.110;5.548;2023-05-31T03:01:23;2.30;;;1.67;;
24743;SDS011;12844;52.110;5.548;2023-05-31T03:03:49;1.55;;;1.20;;
24743;SDS011;12844;52.110;5.548;2023-05-31T03:06:14;1.70;;;1.25;;
24743;SDS011;12844;52.110;5.548;2023-05-31T03:08:44;1.83;;;1.45;;
24743;SDS011;12844;52.110;5.548;2023-05-31T03:11:10;3.13;;;1.48;;
24743;SDS011;12844;52.110;5.548;2023-05-31T03:13:36;2.38;;;1.60;;
24743;SDS011;12844;52.110;5.548;2023-05-31T03:16:01;1.63;;;1.35;;
24743;SDS011;12844;52.110;5.548;2023-05-31T03:18:27;3.97;;;1.55;;
24743;SDS011;12844;52.110;5.548;2023-05-31T07:29:26;2.95;;;1.65;;
24743;SDS011;12844;52.110;5.548;2023-05-31T07:31:52;2.80;;;1.90;;
24743;SDS011;12844;52.110;5.548;2023-05-31T07:34:17;3.03;;;1.90;;
24743;SDS011;12844;52.110;5.548;2023-05-31T07:36:43;6.63;;;2.15;;
24743;SDS011;12844;52.110;5.548;2023-05-31T07:39:08;4.88;;;2.17;;
24743;SDS011;12844;52.110;5.548;2023-05-31T07:41:35;3.17;;;1.80;;
24743;SDS011;12844;52.110;5.548;2023-05-31T07:44:02;4.53;;;2.20;;
24743;SDS011;12844;52.110;5.548;2023-05-31T07:46:27;2.88;;;2.10;;
24743;SDS011;12844;52.110;5.548;2023-05-31T07:48:53;3.38;;;1.92;;
24743;SDS011;12844;52.110;5.548;2023-05-31T07:51:19;2.30;;;1.60;;
24743;SDS011;12844;52.110;5.548;2023-05-31T07:53:45;3.70;;;1.95;;
24743;SDS011;12844;52.110;5.548;2023-05-31T07:56:11;2.50;;;1.90;;
24743;SDS011;12844;52.110;5.548;2023-05-31T07:58:37;3.53;;;2.05;;
24743;SDS011;12844;52.110;5.548;2023-05-31T08:01:03;3.90;;;2.10;;
24743;SDS011;12844;52.110;5.548;2023-05-31T08:03:29;3.08;;;1.80;;
24743;SDS011;12844;52.110;5.548;2023-05-31T08:05:56;4.60;;;1.67;;
24743;SDS011;12844;52.110;5.548;2023-05-31T08:08:22;2.60;;;1.40;;
24743;SDS011;12844;52.110;5.548;2023-05-31T08:10:47;3.67;;;1.55;;
24743;SDS011;12844;52.110;5.548;2023-05-31T08:13:13;3.38;;;2.00;;
24743;SDS011;12844;52.110;5.548;2023-05-31T08:15:39;4.32;;;1.92;;
24743;SDS011;12844;52.110;5.548;2023-05-31T08:18:04;3.65;;;1.83;;
24743;SDS011;12844;52.110;5.548;2023-05-31T08:20:30;3.90;;;1.88;;
24743;SDS011;12844;52.110;5.548;2023-05-31T08:22:55;3.13;;;1.83;;
24743;SDS011;12844;52.110;5.548;2023-05-31T08:25:21;4.10;;;1.60;;
24743;SDS011;12844;52.110;5.548;2023-05-31T08:27:47;5.40;;;1.70;;
24743;SDS011;12844;52.110;5.548;2023-05-31T08:30:13;3.55;;;1.75;;
24743;SDS011;12844;52.110;5.548;2023-05-31T08:32:38;3.75;;;2.10;;
24743;SDS011;12844;52.110;5.548;2023-05-31T08:35:05;3.30;;;1.85;;
24743;SDS011;12844;52.110;5.548;2023-05-31T08:37:38;5.70;;;2.03;;
24743;SDS011;12844;52.110;5.548;2023-05-31T08:40:04;1.95;;;1.40;;
24743;SDS011;12844;52.110;5.548;2023-05-31T08:42:33;3.92;;;1.63;;
24743;SDS011;12844;52.110;5.548;2023-05-31T08:45:08;4.57;;;2.30;;
24743;SDS011;12844;52.110;5.548;2023-05-31T08:47:39;4.72;;;1.90;;
24743;SDS011;12844;52.110;5.548;2023-05-31T08:50:24;5.43;;;1.90;;
24743;SDS011;12844;52.110;5.548;2023-05-31T08:52:51;9.80;;;3.58;;
24743;SDS011;12844;52.110;5.548;2023-05-31T08:55:18;8.07;;;2.72;;
24743;SDS011;12844;52.110;5.548;2023-05-31T08:57:45;8.20;;;3.15;;
24743;SDS011;12844;52.110;5.548;2023-05-31T09:00:11;4.53;;;2.72;;
24743;SDS011;12844;52.110;5.548;2023-05-31T09:02:38;5.93;;;2.50;;
24743;SDS011;12844;52.110;5.548;2023-05-31T09:05:04;6.93;;;2.88;;
24743;SDS011;12844;52.110;5.548;2023-05-31T09:07:31;6.03;;;2.80;;
24743;SDS011;12844;52.110;5.548;2023-05-31T09:09:56;8.55;;;3.20;;
24743;SDS011;12844;52.110;5.548;2023-05-31T09:12:22;7.88;;;3.10;;
24743;SDS011;12844;52.110;5.548;2023-05-31T09:14:48;7.47;;;3.28;;
24743;SDS011;12844;52.110;5.548;2023-05-31T09:17:13;5.65;;;2.90;;
24743;SDS011;12844;52.110;5.548;2023-05-31T09:19:49;7.88;;;2.78;;
24743;SDS011;12844;52.110;5.548;2023-05-31T09:22:17;4.95;;;2.67;;
24743;SDS011;12844;52.110;5.548;2023-05-31T09:25:16;6.93;;;2.60;;
24743;SDS011;12844;52.110;5.548;2023-05-31T09:27:36;5.50;;;2.90;;
24743;SDS011;12844;52.110;5.548;2023-05-31T09:30:07;7.35;;;2.75;;
24743;SDS011;12844;52.110;5.548;2023-05-31T09:32:34;3.67;;;2.47;;
24743;SDS011;12844;52.110;5.548;2023-05-31T09:35:09;5.82;;;2.90;;
24743;SDS011;12844;52.110;5.548;2023-05-31T09:37:45;6.53;;;2.60;;
24743;SDS011;12844;52.110;5.548;2023-05-31T09:40:12;7.30;;;2.90;;
24743;SDS011;12844;52.110;5.548;2023-05-31T09:42:46;4.80;;;2.67;;
24743;SDS011;12844;52.110;5.548;2023-05-31T09:45:13;10.82;;;2.72;;
24743;SDS011;12844;52.110;5.548;2023-05-31T09:47:38;5.45;;;2.80;;
24743;SDS011;12844;52.110;5.548;2023-05-31T09:50:04;3.92;;;2.40;;
24743;SDS011;12844;52.110;5.548;2023-05-31T09:52:33;9.40;;;2.75;;
24743;SDS011;12844;52.110;5.548;2023-05-31T09:55:06;5.18;;;2.38;;
24743;SDS011;12844;52.110;5.548;2023-05-31T09:57:38;5.45;;;2.85;;
24743;SDS011;12844;52.110;5.548;2023-05-31T10:00:09;3.42;;;2.20;;
24743;SDS011;12844;52.110;5.548;2023-05-31T10:02:46;5.90;;;2.60;;
24743;SDS011;12844;52.110;5.548;2023-05-31T10:05:16;7.40;;;2.67;;
24743;SDS011;12844;52.110;5.548;2023-05-31T10:07:47;4.88;;;2.75;;
24743;SDS011;12844;52.110;5.548;2023-05-31T10:10:14;5.63;;;2.35;;
24743;SDS011;12844;52.110;5.548;2023-05-31T10:12:58;5.05;;;2.40;;
24743;SDS011;12844;52.110;5.548;2023-05-31T10:15:26;4.55;;;2.60;;
24743;SDS011;12844;52.110;5.548;2023-05-31T10:18:09;3.97;;;2.60;;
24743;SDS011;12844;52.110;5.548;2023-05-31T10:20:49;6.38;;;2.35;;
24743;SDS011;12844;52.110;5.548;2023-05-31T10:23:20;5.00;;;2.25;;
24743;SDS011;12844;52.110;5.548;2023-05-31T10:25:54;5.13;;;2.38;;
24743;SDS011;12844;52.110;5.548;2023-05-31T10:28:22;3.83;;;2.50;;
24743;SDS011;12844;52.110;5.548;2023-05-31T10:30:53;6.00;;;2.50;;
24743;SDS011;12844;52.110;5.548;2023-05-31T10:33:20;3.58;;;2.45;;
24743;SDS011;12844;52.110;5.548;2023-05-31T10:35:47;4.60;;;2.60;;
24743;SDS011;12844;52.110;5.548;2023-05-31T10:38:15;4.07;;;2.40;;
24743;SDS011;12844;52.110;5.548;2023-05-31T10:43:19;4.32;;;2.35;;
24743;SDS011;12844;52.110;5.548;2023-05-31T10:46:16;6.35;;;2.90;;
24743;SDS011;12844;52.110;5.548;2023-05-31T10:51:18;5.20;;;2.60;;
24743;SDS011;12844;52.110;5.548;2023-05-31T10:53:45;3.70;;;2.25;;
24743;SDS011;12844;52.110;5.548;2023-05-31T10:56:11;3.08;;;2.35;;
24743;SDS011;12844;52.110;5.548;2023-05-31T10:58:47;4.47;;;2.80;;
24743;SDS011;12844;52.110;5.548;2023-05-31T11:01:14;4.15;;;2.50;;
24743;SDS011;12844;52.110;5.548;2023-05-31T11:03:46;6.60;;;2.70;;
24743;SDS011;12844;52.110;5.548;2023-05-31T11:06:15;4.90;;;2.63;;
24743;SDS011;12844;52.110;5.548;2023-05-31T11:08:57;7.43;;;2.47;;
24743;SDS011;12844;52.110;5.548;2023-05-31T11:14:02;7.75;;;2.67;;
24743;SDS011;12844;52.110;5.548;2023-05-31T11:16:30;7.70;;;3.00;;
24743;SDS011;12844;52.110;5.548;2023-05-31T11:19:01;7.60;;;2.72;;
24743;SDS011;12844;52.110;5.548;2023-05-31T11:26:58;7.35;;;2.83;;
24743;SDS011;12844;52.110;5.548;2023-05-31T11:29:25;6.28;;;2.83;;
24743;SDS011;12844;52.110;5.548;2023-05-31T11:32:13;5.75;;;2.95;;
24743;SDS011;12844;52.110;5.548;2023-05-31T11:34:50;4.70;;;2.78;;
24743;SDS011;12844;52.110;5.548;2023-05-31T11:37:21;8.18;;;2.67;;
24743;SDS011;12844;52.110;5.548;2023-05-31T11:39:48;5.75;;;2.85;;
24743;SDS011;12844;52.110;5.548;2023-05-31T11:42:14;6.53;;;2.65;;
24743;SDS011;12844;52.110;5.548;2023-05-31T11:44:41;5.70;;;3.20;;
24743;SDS011;12844;52.110;5.548;2023-05-31T11:47:21;6.43;;;2.42;;
24743;SDS011;12844;52.110;5.548;2023-05-31T11:49:51;6.57;;;2.60;;
24743;SDS011;12844;52.110;5.548;2023-05-31T11:52:18;6.40;;;2.70;;
24743;SDS011;12844;52.110;5.548;2023-05-31T11:54:45;5.03;;;2.50;;
24743;SDS011;12844;52.110;5.548;2023-05-31T11:57:13;4.32;;;2.55;;
24743;SDS011;12844;52.110;5.548;2023-05-31T11:59:39;4.53;;;2.60;;
24743;SDS011;12844;52.110;5.548;2023-05-31T12:02:06;5.82;;;2.38;;
24743;SDS011;12844;52.110;5.548;2023-05-31T12:04:39;3.97;;;2.78;;
24743;SDS011;12844;52.110;5.548;2023-05-31T12:07:08;4.03;;;2.60;;
24743;SDS011;12844;52.110;5.548;2023-05-31T12:09:41;5.63;;;2.50;;
24743;SDS011;12844;52.110;5.548;2023-05-31T12:12:07;6.70;;;2.60;;
24743;SDS011;12844;52.110;5.548;2023-05-31T12:14:33;3.83;;;2.40;;
24743;SDS011;12844;52.110;5.548;2023-05-31T12:17:03;4.88;;;2.83;;
24743;SDS011;12844;52.110;5.548;2023-05-31T12:19:30;4.28;;;2.50;;
24743;SDS011;12844;52.110;5.548;2023-05-31T12:22:00;5.88;;;2.65;;
24743;SDS011;12844;52.110;5.548;2023-05-31T12:24:27;4.70;;;2.63;;
24743;SDS011;12844;52.110;5.548;2023-05-31T12:26:53;4.78;;;2.30;;
24743;SDS011;12844;52.110;5.548;2023-05-31T12:29:22;5.40;;;2.80;;
24743;SDS011;12844;52.110;5.548;2023-05-31T12:31:59;4.40;;;2.58;;
24743;SDS011;12844;52.110;5.548;2023-05-31T12:34:28;5.00;;;2.63;;
24743;SDS011;12844;52.110;5.548;2023-05-31T12:36:57;4.57;;;2.53;;
24743;SDS011;12844;52.110;5.548;2023-05-31T12:39:25;7.03;;;2.90;;
24743;SDS011;12844;52.110;5.548;2023-05-31T12:41:51;5.22;;;2.38;;
24743;SDS011;12844;52.110;5.548;2023-05-31T12:44:21;3.78;;;2.53;;
24743;SDS011;12844;52.110;5.548;2023-05-31T12:46:48;4.95;;;2.75;;
24743;SDS011;12844;52.110;5.548;2023-05-31T12:49:19;5.22;;;2.60;;
24743;SDS011;12844;52.110;5.548;2023-05-31T12:51:46;4.28;;;2.40;;
24743;SDS011;12844;52.110;5.548;2023-05-31T12:54:26;4.82;;;2.70;;
24743;SDS011;12844;52.110;5.548;2023-05-31T12:56:53;5.50;;;2.90;;
24743;SDS011;12844;52.110;5.548;2023-05-31T12:59:20;5.22;;;2.50;;
24743;SDS011;12844;52.110;5.548;2023-05-31T13:01:46;3.80;;;2.80;;
24743;SDS011;12844;52.110;5.548;2023-05-31T13:04:11;4.72;;;2.55;;
24743;SDS011;12844;52.110;5.548;2023-05-31T13:06:38;4.03;;;2.88;;
24743;SDS011;12844;52.110;5.548;2023-05-31T13:09:04;5.25;;;2.70;;
24743;SDS011;12844;52.110;5.548;2023-05-31T13:11:32;3.05;;;2.25;;
24743;SDS011;12844;52.110;5.548;2023-05-31T13:14:05;4.03;;;2.55;;
24743;SDS011;12844;52.110;5.548;2023-05-31T13:16:32;3.78;;;2.50;;
24743;SDS011;12844;52.110;5.548;2023-05-31T13:18:59;6.60;;;2.70;;
24743;SDS011;12844;52.110;5.548;2023-05-31T13:21:25;4.10;;;2.72;;
24743;SDS011;12844;52.110;5.548;2023-05-31T13:23:51;3.83;;;3.10;;
24743;SDS011;12844;52.110;5.548;2023-05-31T13:26:17;4.32;;;2.58;;
24743;SDS011;12844;52.110;5.548;2023-05-31T13:28:43;4.38;;;2.53;;
24743;SDS011;12844;52.110;5.548;2023-05-31T13:31:09;5.20;;;2.80;;
24743;SDS011;12844;52.110;5.548;2023-05-31T13:33:34;5.68;;;2.80;;
24743;SDS011;12844;52.110;5.548;2023-05-31T13:36:00;4.10;;;2.60;;
24743;SDS011;12844;52.110;5.548;2023-05-31T13:38:26;4.43;;;2.60;;
24743;SDS011;12844;52.110;5.548;2023-05-31T13:40:51;4.10;;;2.88;;
24743;SDS011;12844;52.110;5.548;2023-05-31T13:43:20;4.05;;;2.55;;
24743;SDS011;12844;52.110;5.548;2023-05-31T13:45:49;4.90;;;2.97;;
24743;SDS011;12844;52.110;5.548;2023-05-31T13:48:16;5.00;;;2.80;;
24743;SDS011;12844;52.110;5.548;2023-05-31T13:50:41;6.07;;;3.17;;
24743;SDS011;12844;52.110;5.548;2023-05-31T13:53:07;4.18;;;2.70;;
24743;SDS011;12844;52.110;5.548;2023-05-31T13:55:39;5.03;;;2.90;;
24743;SDS011;12844;52.110;5.548;2023-05-31T13:58:04;4.60;;;2.90;;
24743;SDS011;12844;52.110;5.548;2023-05-31T14:00:31;5.20;;;2.95;;
24743;SDS011;12844;52.110;5.548;2023-05-31T14:02:56;4.50;;;3.13;;
24743;SDS011;12844;52.110;5.548;2023-05-31T14:05:23;4.93;;;3.17;;
24743;SDS011;12844;52.110;5.548;2023-05-31T14:07:48;4.93;;;3.10;;
24743;SDS011;12844;52.110;5.548;2023-05-31T14:10:15;4.95;;;3.42;;
24743;SDS011;12844;52.110;5.548;2023-05-31T14:12:41;6.00;;;3.15;;
24743;SDS011;12844;52.110;5.548;2023-05-31T14:15:07;5.97;;;3.60;;
24743;SDS011;12844;52.110;5.548;2023-05-31T14:17:33;7.82;;;3.60;;
24743;SDS011;12844;52.110;5.548;2023-05-31T14:19:58;6.97;;;3.47;;
24743;SDS011;12844;52.110;5.548;2023-05-31T14:22:24;5.97;;;3.42;;
24743;SDS011;12844;52.110;5.548;2023-05-31T14:24:50;5.88;;;3.40;;
24743;SDS011;12844;52.110;5.548;2023-05-31T14:27:15;9.10;;;3.95;;
24743;SDS011;12844;52.110;5.548;2023-05-31T14:29:43;8.05;;;3.90;;
24743;SDS011;12844;52.110;5.548;2023-05-31T14:32:08;8.40;;;4.10;;
24743;SDS011;12844;52.110;5.548;2023-05-31T14:34:37;7.40;;;3.72;;
24743;SDS011;12844;52.110;5.548;2023-05-31T14:37:03;6.97;;;3.90;;
24743;SDS011;12844;52.110;5.548;2023-05-31T14:39:29;6.95;;;3.80;;
24743;SDS011;12844;52.110;5.548;2023-05-31T14:41:55;7.85;;;3.80;;
24743;SDS011;12844;52.110;5.548;2023-05-31T14:44:20;6.20;;;3.85;;
24743;SDS011;12844;52.110;5.548;2023-05-31T14:46:46;8.82;;;4.45;;
24743;SDS011;12844;52.110;5.548;2023-05-31T14:49:11;6.70;;;3.70;;
24743;SDS011;12844;52.110;5.548;2023-05-31T14:51:37;7.00;;;3.63;;
24743;SDS011;12844;52.110;5.548;2023-05-31T14:54:03;6.65;;;3.70;;
24743;SDS011;12844;52.110;5.548;2023-05-31T14:56:28;7.80;;;4.00;;
24743;SDS011;12844;52.110;5.548;2023-05-31T14:58:54;6.20;;;3.85;;
24743;SDS011;12844;52.110;5.548;2023-05-31T15:01:20;6.20;;;3.85;;
24743;SDS011;12844;52.110;5.548;2023-05-31T15:03:45;7.35;;;4.00;;
24743;SDS011;12844;52.110;5.548;2023-05-31T15:06:11;8.65;;;3.90;;
24743;SDS011;12844;52.110;5.548;2023-05-31T15:08:37;7.13;;;4.20;;
24743;SDS011;12844;52.110;5.548;2023-05-31T15:11:02;6.15;;;3.63;;
24743;SDS011;12844;52.110;5.548;2023-05-31T15:13:28;7.05;;;3.83;;
24743;SDS011;12844;52.110;5.548;2023-05-31T15:15:53;7.22;;;4.00;;
24743;SDS011;12844;52.110;5.548;2023-05-31T15:18:19;10.38;;;3.75;;
24743;SDS011;12844;52.110;5.548;2023-05-31T15:20:44;6.13;;;3.75;;
24743;SDS011;12844;52.110;5.548;2023-05-31T15:23:10;8.85;;;4.13;;
24743;SDS011;12844;52.110;5.548;2023-05-31T15:25:36;7.80;;;4.10;;
24743;SDS011;12844;52.110;5.548;2023-05-31T15:28:01;9.65;;;4.20;;
24743;SDS011;12844;52.110;5.548;2023-05-31T15:30:27;7.43;;;4.00;;
24743;SDS011;12844;52.110;5.548;2023-05-31T15:32:53;5.68;;;3.33;;
24743;SDS011;12844;52.110;5.548;2023-05-31T15:35:18;8.13;;;4.03;;
24743;SDS011;12844;52.110;5.548;2023-05-31T15:37:45;6.05;;;3.40;;
24743;SDS011;12844;52.110;5.548;2023-05-31T15:40:11;8.95;;;3.95;;
24743;SDS011;12844;52.110;5.548;2023-05-31T15:42:36;8.73;;;3.70;;
24743;SDS011;12844;52.110;5.548;2023-05-31T15:45:02;7.47;;;3.65;;
24743;SDS011;12844;52.110;5.548;2023-05-31T15:47:28;9.55;;;4.00;;
24743;SDS011;12844;52.110;5.548;2023-05-31T15:49:56;6.60;;;3.80;;
24743;SDS011;12844;52.110;5.548;2023-05-31T15:52:26;6.28;;;4.00;;
24743;SDS011;12844;52.110;5.548;2023-05-31T15:54:51;6.28;;;3.58;;
24743;SDS011;12844;52.110;5.548;2023-05-31T15:57:17;7.82;;;3.75;;
24743;SDS011;12844;52.110;5.548;2023-05-31T15:59:42;5.63;;;3.45;;
24743;SDS011;12844;52.110;5.548;2023-05-31T16:02:08;5.75;;;3.95;;
24743;SDS011;12844;52.110;5.548;2023-05-31T16:04:33;7.47;;;3.85;;
24743;SDS011;12844;52.110;5.548;2023-05-31T16:06:59;6.15;;;3.95;;
24743;SDS011;12844;52.110;5.548;2023-05-31T16:09:24;8.30;;;3.95;;
24743;SDS011;12844;52.110;5.548;2023-05-31T16:11:50;6.30;;;3.60;;
24743;SDS011;12844;52.110;5.548;2023-05-31T16:14:15;6.80;;;3.97;;
24743;SDS011;12844;52.110;5.548;2023-05-31T16:16:41;6.68;;;3.42;;
24743;SDS011;12844;52.110;5.548;2023-05-31T16:19:06;5.07;;;3.60;;
24743;SDS011;12844;52.110;5.548;2023-05-31T16:21:32;6.85;;;3.88;;
24743;SDS011;12844;52.110;5.548;2023-05-31T16:23:57;7.10;;;3.95;;
24743;SDS011;12844;52.110;5.548;2023-05-31T16:26:23;7.25;;;3.95;;
24743;SDS011;12844;52.110;5.548;2023-05-31T16:28:49;5.65;;;3.42;;
24743;SDS011;12844;52.110;5.548;2023-05-31T16:31:15;7.30;;;4.03;;
24743;SDS011;12844;52.110;5.548;2023-05-31T16:33:42;6.05;;;3.78;;
24743;SDS011;12844;52.110;5.548;2023-05-31T16:36:08;5.93;;;3.88;;
24743;SDS011;12844;52.110;5.548;2023-05-31T16:38:33;6.22;;;3.63;;
24743;SDS011;12844;52.110;5.548;2023-05-31T16:40:59;4.40;;;3.22;;
24743;SDS011;12844;52.110;5.548;2023-05-31T16:43:25;5.88;;;3.60;;
24743;SDS011;12844;52.110;5.548;2023-05-31T16:45:50;6.43;;;3.63;;
24743;SDS011;12844;52.110;5.548;2023-05-31T16:48:16;6.50;;;3.70;;
24743;SDS011;12844;52.110;5.548;2023-05-31T16:50:41;6.15;;;3.72;;
24743;SDS011;12844;52.110;5.548;2023-05-31T16:53:08;5.00;;;3.58;;
24743;SDS011;12844;52.110;5.548;2023-05-31T16:55:34;6.40;;;3.50;;
24743;SDS011;12844;52.110;5.548;2023-05-31T16:57:59;5.47;;;3.50;;
24743;SDS011;12844;52.110;5.548;2023-05-31T17:00:25;5.80;;;3.60;;
24743;SDS011;12844;52.110;5.548;2023-05-31T17:02:51;5.40;;;3.65;;
24743;SDS011;12844;52.110;5.548;2023-05-31T17:05:16;5.82;;;3.85;;
24743;SDS011;12844;52.110;5.548;2023-05-31T17:07:42;5.82;;;3.75;;
24743;SDS011;12844;52.110;5.548;2023-05-31T17:10:07;5.60;;;3.65;;
24743;SDS011;12844;52.110;5.548;2023-05-31T17:12:33;6.47;;;3.90;;
24743;SDS011;12844;52.110;5.548;2023-05-31T17:14:59;7.05;;;4.03;;
24743;SDS011;12844;52.110;5.548;2023-05-31T17:17:24;4.82;;;3.40;;
24743;SDS011;12844;52.110;5.548;2023-05-31T17:19:50;5.85;;;3.28;;
24743;SDS011;12844;52.110;5.548;2023-05-31T17:22:16;5.88;;;3.80;;
24743;SDS011;12844;52.110;5.548;2023-05-31T17:24:42;7.55;;;3.67;;
24743;SDS011;12844;52.110;5.548;2023-05-31T17:27:08;5.10;;;3.50;;
24743;SDS011;12844;52.110;5.548;2023-05-31T17:29:34;5.45;;;3.40;;
24743;SDS011;12844;52.110;5.548;2023-05-31T17:31:59;6.55;;;3.70;;
24743;SDS011;12844;52.110;5.548;2023-05-31T17:34:25;4.97;;;3.63;;
24743;SDS011;12844;52.110;5.548;2023-05-31T17:36:51;7.25;;;3.47;;
24743;SDS011;12844;52.110;5.548;2023-05-31T17:39:16;5.07;;;3.60;;
24743;SDS011;12844;52.110;5.548;2023-05-31T17:41:42;6.88;;;3.65;;
24743;SDS011;12844;52.110;5.548;2023-05-31T17:44:08;7.38;;;3.35;;
24743;SDS011;12844;52.110;5.548;2023-05-31T17:46:33;5.10;;;3.60;;
24743;SDS011;12844;52.110;5.548;2023-05-31T17:48:59;6.60;;;3.63;;
24743;SDS011;12844;52.110;5.548;2023-05-31T17:51:24;6.88;;;3.67;;
24743;SDS011;12844;52.110;5.548;2023-05-31T17:53:50;7.65;;;3.67;;
24743;SDS011;12844;52.110;5.548;2023-05-31T17:56:16;5.88;;;3.90;;
24743;SDS011;12844;52.110;5.548;2023-05-31T17:58:41;5.15;;;3.20;;
24743;SDS011;12844;52.110;5.548;2023-05-31T18:01:07;5.68;;;3.50;;
24743;SDS011;12844;52.110;5.548;2023-05-31T18:03:33;4.82;;;3.45;;
24743;SDS011;12844;52.110;5.548;2023-05-31T18:05:58;5.18;;;3.67;;
24743;SDS011;12844;52.110;5.548;2023-05-31T18:08:24;5.50;;;3.70;;
24743;SDS011;12844;52.110;5.548;2023-05-31T18:10:50;5.25;;;3.40;;
24743;SDS011;12844;52.110;5.548;2023-05-31T18:13:16;4.28;;;3.33;;
24743;SDS011;12844;52.110;5.548;2023-05-31T18:15:42;5.38;;;3.70;;
24743;SDS011;12844;52.110;5.548;2023-05-31T18:18:07;5.28;;;3.67;;
24743;SDS011;12844;52.110;5.548;2023-05-31T18:20:33;6.07;;;3.88;;
24743;SDS011;12844;52.110;5.548;2023-05-31T18:22:59;5.60;;;4.35;;
24743;SDS011;12844;52.110;5.548;2023-05-31T18:25:25;6.53;;;3.85;;
24743;SDS011;12844;52.110;5.548;2023-05-31T18:27:56;6.32;;;3.85;;
24743;SDS011;12844;52.110;5.548;2023-05-31T18:30:22;4.72;;;3.65;;
24743;SDS011;12844;52.110;5.548;2023-05-31T18:32:48;5.93;;;3.60;;
24743;SDS011;12844;52.110;5.548;2023-05-31T18:35:14;5.25;;;3.60;;
24743;SDS011;12844;52.110;5.548;2023-05-31T18:37:40;4.97;;;3.60;;
24743;SDS011;12844;52.110;5.548;2023-05-31T18:40:06;5.70;;;3.50;;
24743;SDS011;12844;52.110;5.548;2023-05-31T18:42:32;5.65;;;3.78;;
24743;SDS011;12844;52.110;5.548;2023-05-31T18:44:59;5.55;;;3.75;;
24743;SDS011;12844;52.110;5.548;2023-05-31T18:47:25;4.93;;;3.60;;
24743;SDS011;12844;52.110;5.548;2023-05-31T18:49:51;5.25;;;3.78;;
24743;SDS011;12844;52.110;5.548;2023-05-31T18:52:16;4.70;;;3.47;;
24743;SDS011;12844;52.110;5.548;2023-05-31T18:54:42;5.05;;;3.70;;
24743;SDS011;12844;52.110;5.548;2023-05-31T18:57:08;7.03;;;3.75;;
24743;SDS011;12844;52.110;5.548;2023-05-31T18:59:34;6.35;;;4.00;;
24743;SDS011;12844;52.110;5.548;2023-05-31T19:02:00;5.82;;;3.45;;
24743;SDS011;12844;52.110;5.548;2023-05-31T19:04:26;6.18;;;3.35;;
24743;SDS011;12844;52.110;5.548;2023-05-31T19:06:52;9.95;;;3.70;;
24743;SDS011;12844;52.110;5.548;2023-05-31T19:09:18;5.07;;;3.70;;
24743;SDS011;12844;52.110;5.548;2023-05-31T19:11:44;6.80;;;3.58;;
24743;SDS011;12844;52.110;5.548;2023-05-31T19:14:13;6.13;;;3.80;;
24743;SDS011;12844;52.110;5.548;2023-05-31T19:16:42;5.05;;;3.58;;
24743;SDS011;12844;52.110;5.548;2023-05-31T19:19:08;5.10;;;3.63;;